sensor_id;sensor_type;location;lat;lon;timestamp;temperature;humidity
73780;SHT30;62093;37.614;15.072;2022-10-18T00:01:07;20.11;65.28
73780;SHT30;62093;37.614;15.072;2022-10-18T00:03:34;20.15;65.24
73780;SHT30;62093;37.614;15.072;2022-10-18T00:06:01;20.10;64.89
73780;SHT30;62093;37.614;15.072;2022-10-18T00:08:27;20.11;65.28
73780;SHT30;62093;37.614;15.072;2022-10-18T00:10:53;20.14;65.20
73780;SHT30;62093;37.614;15.072;2022-10-18T00:13:20;20.14;65.20
73780;SHT30;62093;37.614;15.072;2022-10-18T00:16:00;20.08;65.28
73780;SHT30;62093;37.614;15.072;2022-10-18T00:18:27;20.11;65.20
73780;SHT30;62093;37.614;15.072;2022-10-18T00:21:14;20.05;65.17
73780;SHT30;62093;37.614;15.072;2022-10-18T00:23:40;20.10;65.22
73780;SHT30;62093;37.614;15.072;2022-10-18T00:28:35;20.08;65.37
73780;SHT30;62093;37.614;15.072;2022-10-18T00:31:15;20.08;65.33
73780;SHT30;62093;37.614;15.072;2022-10-18T00:33:43;20.10;65.40
73780;SHT30;62093;37.614;15.072;2022-10-18T00:36:10;20.10;65.35
73780;SHT30;62093;37.614;15.072;2022-10-18T00:38:36;20.08;65.34
73780;SHT30;62093;37.614;15.072;2022-10-18T00:41:03;20.07;65.42
73780;SHT30;62093;37.614;15.072;2022-10-18T00:43:30;20.03;65.42
73780;SHT30;62093;37.614;15.072;2022-10-18T00:45:56;20.04;65.33
73780;SHT30;62093;37.614;15.072;2022-10-18T00:48:22;20.04;65.25
73780;SHT30;62093;37.614;15.072;2022-10-18T00:50:49;20.01;65.63
73780;SHT30;62093;37.614;15.072;2022-10-18T00:53:19;20.03;65.61
73780;SHT30;62093;37.614;15.072;2022-10-18T00:55:47;20.03;65.60
73780;SHT30;62093;37.614;15.072;2022-10-18T00:58:15;19.98;65.47
73780;SHT30;62093;37.614;15.072;2022-10-18T01:00:42;19.98;65.63
73780;SHT30;62093;37.614;15.072;2022-10-18T01:03:08;19.97;65.38
73780;SHT30;62093;37.614;15.072;2022-10-18T01:05:42;19.97;65.48
73780;SHT30;62093;37.614;15.072;2022-10-18T01:16:37;19.95;65.31
73780;SHT30;62093;37.614;15.072;2022-10-18T01:22:05;19.97;65.67
73780;SHT30;62093;37.614;15.072;2022-10-18T01:32:47;19.97;65.63
73780;SHT30;62093;37.614;15.072;2022-10-18T01:35:17;19.97;65.62
73780;SHT30;62093;37.614;15.072;2022-10-18T01:37:47;19.93;65.34
73780;SHT30;62093;37.614;15.072;2022-10-18T01:40:17;19.94;65.46
73780;SHT30;62093;37.614;15.072;2022-10-18T01:42:46;19.90;65.62
73780;SHT30;62093;37.614;15.072;2022-10-18T01:45:13;19.94;65.50
73780;SHT30;62093;37.614;15.072;2022-10-18T01:47:42;19.91;65.30
73780;SHT30;62093;37.614;15.072;2022-10-18T01:50:08;19.94;65.37
73780;SHT30;62093;37.614;15.072;2022-10-18T01:52:34;19.94;65.14
73780;SHT30;62093;37.614;15.072;2022-10-18T01:55:02;19.94;65.44
73780;SHT30;62093;37.614;15.072;2022-10-18T01:57:40;19.94;65.32
73780;SHT30;62093;37.614;15.072;2022-10-18T02:00:22;19.91;65.20
73780;SHT30;62093;37.614;15.072;2022-10-18T02:02:54;19.90;65.38
73780;SHT30;62093;37.614;15.072;2022-10-18T02:05:39;19.93;65.29
73780;SHT30;62093;37.614;15.072;2022-10-18T02:11:08;19.91;65.37
73780;SHT30;62093;37.614;15.072;2022-10-18T02:16:07;19.84;65.25
73780;SHT30;62093;37.614;15.072;2022-10-18T02:18:44;19.90;65.00
73780;SHT30;62093;37.614;15.072;2022-10-18T02:21:15;19.87;65.14
73780;SHT30;62093;37.614;15.072;2022-10-18T02:23:44;19.90;64.87
73780;SHT30;62093;37.614;15.072;2022-10-18T02:26:11;19.87;64.87
73780;SHT30;62093;37.614;15.072;2022-10-18T02:28:37;19.86;64.73
73780;SHT30;62093;37.614;15.072;2022-10-18T02:31:17;19.87;64.90
73780;SHT30;62093;37.614;15.072;2022-10-18T02:34:23;19.87;64.98
73780;SHT30;62093;37.614;15.072;2022-10-18T02:36:56;19.84;64.85
73780;SHT30;62093;37.614;15.072;2022-10-18T02:39:29;19.86;64.59
73780;SHT30;62093;37.614;15.072;2022-10-18T02:41:56;19.86;64.52
73780;SHT30;62093;37.614;15.072;2022-10-18T02:44:23;19.88;64.80
73780;SHT30;62093;37.614;15.072;2022-10-18T02:46:49;19.86;64.27
73780;SHT30;62093;37.614;15.072;2022-10-18T02:49:14;19.87;64.38
73780;SHT30;62093;37.614;15.072;2022-10-18T02:51:40;19.91;64.81
73780;SHT30;62093;37.614;15.072;2022-10-18T02:54:06;19.84;63.94
73780;SHT30;62093;37.614;15.072;2022-10-18T02:56:33;19.87;64.99
73780;SHT30;62093;37.614;15.072;2022-10-18T02:58:59;19.86;64.83
73780;SHT30;62093;37.614;15.072;2022-10-18T03:01:25;19.87;64.29
73780;SHT30;62093;37.614;15.072;2022-10-18T03:03:52;19.91;64.27
73780;SHT30;62093;37.614;15.072;2022-10-18T03:06:17;19.91;64.79
73780;SHT30;62093;37.614;15.072;2022-10-18T03:08:44;19.87;64.26
73780;SHT30;62093;37.614;15.072;2022-10-18T03:11:10;19.88;63.94
73780;SHT30;62093;37.614;15.072;2022-10-18T03:13:36;19.83;63.91
73780;SHT30;62093;37.614;15.072;2022-10-18T03:16:01;19.88;64.25
73780;SHT30;62093;37.614;15.072;2022-10-18T03:18:27;19.84;64.01
73780;SHT30;62093;37.614;15.072;2022-10-18T03:20:53;19.88;63.94
73780;SHT30;62093;37.614;15.072;2022-10-18T03:23:19;19.87;64.69
73780;SHT30;62093;37.614;15.072;2022-10-18T03:25:45;19.90;63.95
73780;SHT30;62093;37.614;15.072;2022-10-18T03:28:11;19.87;64.26
73780;SHT30;62093;37.614;15.072;2022-10-18T03:30:37;19.86;64.72
73780;SHT30;62093;37.614;15.072;2022-10-18T03:33:06;19.86;64.13
73780;SHT30;62093;37.614;15.072;2022-10-18T03:35:32;19.86;63.87
73780;SHT30;62093;37.614;15.072;2022-10-18T03:37:57;19.83;63.98
73780;SHT30;62093;37.614;15.072;2022-10-18T03:40:23;19.86;64.27
73780;SHT30;62093;37.614;15.072;2022-10-18T03:42:49;19.88;64.53
73780;SHT30;62093;37.614;15.072;2022-10-18T03:45:15;19.86;63.67
73780;SHT30;62093;37.614;15.072;2022-10-18T03:47:41;19.87;64.12
73780;SHT30;62093;37.614;15.072;2022-10-18T03:50:07;19.86;64.31
73780;SHT30;62093;37.614;15.072;2022-10-18T03:52:33;19.83;64.10
73780;SHT30;62093;37.614;15.072;2022-10-18T03:54:59;19.80;63.78
73780;SHT30;62093;37.614;15.072;2022-10-18T03:57:25;19.80;64.36
73780;SHT30;62093;37.614;15.072;2022-10-18T03:59:51;19.80;64.53
73780;SHT30;62093;37.614;15.072;2022-10-18T04:02:17;19.81;64.23
73780;SHT30;62093;37.614;15.072;2022-10-18T04:04:43;19.80;64.29
73780;SHT30;62093;37.614;15.072;2022-10-18T04:07:09;19.80;64.28
73780;SHT30;62093;37.614;15.072;2022-10-18T04:09:35;19.78;64.81
73780;SHT30;62093;37.614;15.072;2022-10-18T04:12:01;19.81;64.44
73780;SHT30;62093;37.614;15.072;2022-10-18T04:14:26;19.83;63.70
73780;SHT30;62093;37.614;15.072;2022-10-18T04:16:52;19.84;64.07
73780;SHT30;62093;37.614;15.072;2022-10-18T04:19:18;19.78;63.77
73780;SHT30;62093;37.614;15.072;2022-10-18T04:21:44;19.78;63.01
73780;SHT30;62093;37.614;15.072;2022-10-18T04:24:10;19.78;63.40
73780;SHT30;62093;37.614;15.072;2022-10-18T04:26:36;19.84;63.91
73780;SHT30;62093;37.614;15.072;2022-10-18T04:29:02;19.84;63.22
73780;SHT30;62093;37.614;15.072;2022-10-18T04:31:27;19.84;62.98
73780;SHT30;62093;37.614;15.072;2022-10-18T04:33:53;19.84;63.63
73780;SHT30;62093;37.614;15.072;2022-10-18T04:36:19;19.83;63.20
73780;SHT30;62093;37.614;15.072;2022-10-18T04:38:45;19.84;63.42
73780;SHT30;62093;37.614;15.072;2022-10-18T04:41:11;19.80;63.38
73780;SHT30;62093;37.614;15.072;2022-10-18T04:43:37;19.80;63.85
73780;SHT30;62093;37.614;15.072;2022-10-18T04:46:03;19.84;62.92
73780;SHT30;62093;37.614;15.072;2022-10-18T04:48:28;19.83;63.31
73780;SHT30;62093;37.614;15.072;2022-10-18T04:50:54;19.80;63.76
73780;SHT30;62093;37.614;15.072;2022-10-18T04:53:20;19.78;63.09
73780;SHT30;62093;37.614;15.072;2022-10-18T04:55:49;19.81;63.29
73780;SHT30;62093;37.614;15.072;2022-10-18T04:58:16;19.78;63.22
73780;SHT30;62093;37.614;15.072;2022-10-18T05:00:42;19.83;63.75
73780;SHT30;62093;37.614;15.072;2022-10-18T05:03:11;19.87;63.96
73780;SHT30;62093;37.614;15.072;2022-10-18T05:05:37;19.88;62.88
73780;SHT30;62093;37.614;15.072;2022-10-18T05:08:03;19.84;63.47
73780;SHT30;62093;37.614;15.072;2022-10-18T05:10:29;19.77;64.09
73780;SHT30;62093;37.614;15.072;2022-10-18T05:12:55;19.73;64.26
73780;SHT30;62093;37.614;15.072;2022-10-18T05:15:21;19.83;64.39
73780;SHT30;62093;37.614;15.072;2022-10-18T05:17:46;19.81;63.82
73780;SHT30;62093;37.614;15.072;2022-10-18T05:20:12;19.83;63.85
73780;SHT30;62093;37.614;15.072;2022-10-18T05:22:38;19.74;63.71
73780;SHT30;62093;37.614;15.072;2022-10-18T05:25:04;19.81;64.00
73780;SHT30;62093;37.614;15.072;2022-10-18T05:27:30;19.80;63.57
73780;SHT30;62093;37.614;15.072;2022-10-18T05:29:56;19.80;64.13
73780;SHT30;62093;37.614;15.072;2022-10-18T05:32:22;19.77;63.99
73780;SHT30;62093;37.614;15.072;2022-10-18T05:34:48;19.76;63.74
73780;SHT30;62093;37.614;15.072;2022-10-18T05:37:14;19.77;64.32
73780;SHT30;62093;37.614;15.072;2022-10-18T05:39:39;19.78;63.99
73780;SHT30;62093;37.614;15.072;2022-10-18T05:42:05;19.77;63.95
73780;SHT30;62093;37.614;15.072;2022-10-18T05:44:31;19.78;63.96
73780;SHT30;62093;37.614;15.072;2022-10-18T05:46:57;19.80;63.94
73780;SHT30;62093;37.614;15.072;2022-10-18T05:49:23;19.76;63.60
73780;SHT30;62093;37.614;15.072;2022-10-18T05:51:49;19.73;63.89
73780;SHT30;62093;37.614;15.072;2022-10-18T05:54:15;19.77;63.74
73780;SHT30;62093;37.614;15.072;2022-10-18T05:56:40;19.77;63.79
73780;SHT30;62093;37.614;15.072;2022-10-18T05:59:07;19.78;64.03
73780;SHT30;62093;37.614;15.072;2022-10-18T06:01:37;19.80;64.22
73780;SHT30;62093;37.614;15.072;2022-10-18T06:04:03;19.80;64.11
73780;SHT30;62093;37.614;15.072;2022-10-18T06:06:29;19.77;64.17
73780;SHT30;62093;37.614;15.072;2022-10-18T06:08:55;19.78;63.86
73780;SHT30;62093;37.614;15.072;2022-10-18T06:11:21;19.81;63.90
73780;SHT30;62093;37.614;15.072;2022-10-18T06:13:49;19.84;64.34
73780;SHT30;62093;37.614;15.072;2022-10-18T06:16:18;19.80;63.91
73780;SHT30;62093;37.614;15.072;2022-10-18T06:18:52;19.83;64.01
73780;SHT30;62093;37.614;15.072;2022-10-18T06:21:18;19.78;63.84
73780;SHT30;62093;37.614;15.072;2022-10-18T06:23:52;19.86;64.15
73780;SHT30;62093;37.614;15.072;2022-10-18T06:26:19;19.86;64.18
73780;SHT30;62093;37.614;15.072;2022-10-18T06:28:45;19.84;64.03
73780;SHT30;62093;37.614;15.072;2022-10-18T06:31:12;19.86;64.21
73780;SHT30;62093;37.614;15.072;2022-10-18T06:33:38;19.94;64.33
73780;SHT30;62093;37.614;15.072;2022-10-18T06:36:10;19.90;63.86
73780;SHT30;62093;37.614;15.072;2022-10-18T06:38:37;19.90;63.93
73780;SHT30;62093;37.614;15.072;2022-10-18T06:41:04;19.90;64.20
73780;SHT30;62093;37.614;15.072;2022-10-18T06:43:31;19.93;64.18
73780;SHT30;62093;37.614;15.072;2022-10-18T06:45:56;19.97;64.15
73780;SHT30;62093;37.614;15.072;2022-10-18T06:48:23;19.91;63.99
73780;SHT30;62093;37.614;15.072;2022-10-18T06:50:56;19.93;63.98
73780;SHT30;62093;37.614;15.072;2022-10-18T06:53:24;19.91;63.68
73780;SHT30;62093;37.614;15.072;2022-10-18T06:55:49;19.90;64.02
73780;SHT30;62093;37.614;15.072;2022-10-18T06:58:15;19.91;63.67
73780;SHT30;62093;37.614;15.072;2022-10-18T07:00:41;19.93;63.97
73780;SHT30;62093;37.614;15.072;2022-10-18T07:03:07;19.93;63.59
73780;SHT30;62093;37.614;15.072;2022-10-18T07:05:33;19.91;63.78
73780;SHT30;62093;37.614;15.072;2022-10-18T07:07:59;19.95;63.81
73780;SHT30;62093;37.614;15.072;2022-10-18T07:10:25;19.94;63.37
73780;SHT30;62093;37.614;15.072;2022-10-18T07:12:50;19.93;63.57
73780;SHT30;62093;37.614;15.072;2022-10-18T07:15:16;19.97;63.57
73780;SHT30;62093;37.614;15.072;2022-10-18T07:17:43;19.98;63.71
73780;SHT30;62093;37.614;15.072;2022-10-18T07:20:12;19.97;63.46
73780;SHT30;62093;37.614;15.072;2022-10-18T07:22:38;19.97;63.88
73780;SHT30;62093;37.614;15.072;2022-10-18T07:25:05;19.97;63.75
73780;SHT30;62093;37.614;15.072;2022-10-18T07:27:38;20.00;63.26
73780;SHT30;62093;37.614;15.072;2022-10-18T07:30:06;20.00;62.91
73780;SHT30;62093;37.614;15.072;2022-10-18T07:32:32;20.03;63.18
73780;SHT30;62093;37.614;15.072;2022-10-18T07:34:58;20.05;63.59
73780;SHT30;62093;37.614;15.072;2022-10-18T07:37:24;20.00;63.17
73780;SHT30;62093;37.614;15.072;2022-10-18T07:39:50;20.03;63.49
73780;SHT30;62093;37.614;15.072;2022-10-18T07:42:16;20.03;63.44
73780;SHT30;62093;37.614;15.072;2022-10-18T07:44:41;20.08;63.61
73780;SHT30;62093;37.614;15.072;2022-10-18T07:47:07;20.05;63.64
73780;SHT30;62093;37.614;15.072;2022-10-18T07:49:33;20.07;63.95
73780;SHT30;62093;37.614;15.072;2022-10-18T07:51:59;20.07;63.47
73780;SHT30;62093;37.614;15.072;2022-10-18T07:54:25;20.05;63.43
73780;SHT30;62093;37.614;15.072;2022-10-18T07:56:50;20.10;63.80
73780;SHT30;62093;37.614;15.072;2022-10-18T07:59:16;20.07;63.60
73780;SHT30;62093;37.614;15.072;2022-10-18T08:01:42;20.07;63.58
73780;SHT30;62093;37.614;15.072;2022-10-18T08:04:08;20.07;63.51
73780;SHT30;62093;37.614;15.072;2022-10-18T08:06:34;20.11;63.63
73780;SHT30;62093;37.614;15.072;2022-10-18T08:09:00;20.10;63.71
73780;SHT30;62093;37.614;15.072;2022-10-18T08:11:26;20.11;63.71
73780;SHT30;62093;37.614;15.072;2022-10-18T08:13:52;20.13;63.78
73780;SHT30;62093;37.614;15.072;2022-10-18T08:16:24;20.13;63.58
73780;SHT30;62093;37.614;15.072;2022-10-18T08:18:51;20.13;63.71
73780;SHT30;62093;37.614;15.072;2022-10-18T08:21:18;20.15;63.71
73780;SHT30;62093;37.614;15.072;2022-10-18T08:23:45;20.15;63.87
73780;SHT30;62093;37.614;15.072;2022-10-18T08:26:14;20.17;63.62
73780;SHT30;62093;37.614;15.072;2022-10-18T08:28:40;20.13;63.74
73780;SHT30;62093;37.614;15.072;2022-10-18T08:31:10;20.15;63.65
73780;SHT30;62093;37.614;15.072;2022-10-18T08:33:36;20.13;63.58
73780;SHT30;62093;37.614;15.072;2022-10-18T08:36:05;20.18;63.86
73780;SHT30;62093;37.614;15.072;2022-10-18T08:38:35;20.18;63.61
73780;SHT30;62093;37.614;15.072;2022-10-18T08:46:44;20.22;63.72
73780;SHT30;62093;37.614;15.072;2022-10-18T08:49:21;20.21;63.55
73780;SHT30;62093;37.614;15.072;2022-10-18T08:51:48;20.24;63.32
73780;SHT30;62093;37.614;15.072;2022-10-18T08:56:58;20.25;63.40
73780;SHT30;62093;37.614;15.072;2022-10-18T08:59:29;20.22;63.55
73780;SHT30;62093;37.614;15.072;2022-10-18T09:02:10;20.25;63.47
73780;SHT30;62093;37.614;15.072;2022-10-18T09:11:20;20.29;63.31
73780;SHT30;62093;37.614;15.072;2022-10-18T09:22:17;20.32;63.30
73780;SHT30;62093;37.614;15.072;2022-10-18T09:27:17;20.38;63.36
73780;SHT30;62093;37.614;15.072;2022-10-18T09:30:03;20.35;63.44
73780;SHT30;62093;37.614;15.072;2022-10-18T09:33:09;20.38;63.39
73780;SHT30;62093;37.614;15.072;2022-10-18T09:35:47;20.41;63.32
73780;SHT30;62093;37.614;15.072;2022-10-18T09:38:17;20.42;63.31
73780;SHT30;62093;37.614;15.072;2022-10-18T09:41:06;20.39;63.23
73780;SHT30;62093;37.614;15.072;2022-10-18T09:43:46;20.41;63.36
73780;SHT30;62093;37.614;15.072;2022-10-18T09:46:14;20.44;63.20
73780;SHT30;62093;37.614;15.072;2022-10-18T09:48:45;20.42;63.33
73780;SHT30;62093;37.614;15.072;2022-10-18T09:51:25;20.45;63.27
73780;SHT30;62093;37.614;15.072;2022-10-18T10:02:04;20.49;63.24
73780;SHT30;62093;37.614;15.072;2022-10-18T10:04:30;20.51;63.25
73780;SHT30;62093;37.614;15.072;2022-10-18T10:06:58;20.52;63.26
73780;SHT30;62093;37.614;15.072;2022-10-18T10:12:25;20.51;63.22
73780;SHT30;62093;37.614;15.072;2022-10-18T10:14:51;20.53;63.16
73780;SHT30;62093;37.614;15.072;2022-10-18T10:17:22;20.56;63.15
73780;SHT30;62093;37.614;15.072;2022-10-18T10:20:17;20.55;63.18
73780;SHT30;62093;37.614;15.072;2022-10-18T10:22:44;20.53;63.13
73780;SHT30;62093;37.614;15.072;2022-10-18T10:27:45;20.58;63.18
73780;SHT30;62093;37.614;15.072;2022-10-18T10:30:31;20.56;63.13
73780;SHT30;62093;37.614;15.072;2022-10-18T10:32:57;20.56;63.12
73780;SHT30;62093;37.614;15.072;2022-10-18T10:35:27;20.58;63.06
73780;SHT30;62093;37.614;15.072;2022-10-18T10:37:54;20.61;63.05
73780;SHT30;62093;37.614;15.072;2022-10-18T10:40:33;20.62;62.99
73780;SHT30;62093;37.614;15.072;2022-10-18T10:43:17;20.61;63.03
73780;SHT30;62093;37.614;15.072;2022-10-18T10:48:26;20.62;63.02
73780;SHT30;62093;37.614;15.072;2022-10-18T10:55:59;20.62;63.03
73780;SHT30;62093;37.614;15.072;2022-10-18T10:58:27;20.65;63.04
73780;SHT30;62093;37.614;15.072;2022-10-18T11:00:55;20.66;63.01
73780;SHT30;62093;37.614;15.072;2022-10-18T11:03:22;20.66;63.02
73780;SHT30;62093;37.614;15.072;2022-10-18T11:05:50;20.65;62.97
73780;SHT30;62093;37.614;15.072;2022-10-18T11:08:22;20.66;63.02
73780;SHT30;62093;37.614;15.072;2022-10-18T11:11:18;20.66;62.95
73780;SHT30;62093;37.614;15.072;2022-10-18T11:13:53;20.72;62.95
73780;SHT30;62093;37.614;15.072;2022-10-18T11:16:32;20.71;62.93
73780;SHT30;62093;37.614;15.072;2022-10-18T11:19:13;20.72;62.89
73780;SHT30;62093;37.614;15.072;2022-10-18T11:21:45;20.72;62.88
73780;SHT30;62093;37.614;15.072;2022-10-18T11:24:14;20.72;62.87
73780;SHT30;62093;37.614;15.072;2022-10-18T11:32:32;20.77;62.77
73780;SHT30;62093;37.614;15.072;2022-10-18T11:38:05;20.80;62.62
73780;SHT30;62093;37.614;15.072;2022-10-18T11:43:29;20.80;62.56
73780;SHT30;62093;37.614;15.072;2022-10-18T11:46:09;20.79;62.65
73780;SHT30;62093;37.614;15.072;2022-10-18T11:59:28;20.82;62.54
73780;SHT30;62093;37.614;15.072;2022-10-18T12:02:15;20.85;62.54
73780;SHT30;62093;37.614;15.072;2022-10-18T12:04:49;20.83;62.48
73780;SHT30;62093;37.614;15.072;2022-10-18T12:07:17;20.82;62.54
73780;SHT30;62093;37.614;15.072;2022-10-18T12:09:46;20.82;62.56
73780;SHT30;62093;37.614;15.072;2022-10-18T12:14:52;20.82;62.57
73780;SHT30;62093;37.614;15.072;2022-10-18T12:17:38;20.83;62.58
73780;SHT30;62093;37.614;15.072;2022-10-18T12:25:53;20.86;62.52
73780;SHT30;62093;37.614;15.072;2022-10-18T12:39:43;20.86;62.60
73780;SHT30;62093;37.614;15.072;2022-10-18T12:42:31;20.87;62.63
73780;SHT30;62093;37.614;15.072;2022-10-18T12:45:30;20.83;62.73
73780;SHT30;62093;37.614;15.072;2022-10-18T12:47:59;20.83;62.71
73780;SHT30;62093;37.614;15.072;2022-10-18T12:50:37;20.85;62.62
73780;SHT30;62093;37.614;15.072;2022-10-18T12:55:42;20.85;62.69
73780;SHT30;62093;37.614;15.072;2022-10-18T13:18:41;20.87;62.58
73780;SHT30;62093;37.614;15.072;2022-10-18T13:26:43;20.85;62.64
73780;SHT30;62093;37.614;15.072;2022-10-18T13:39:40;20.83;62.70
73780;SHT30;62093;37.614;15.072;2022-10-18T13:44:40;20.83;62.74
73780;SHT30;62093;37.614;15.072;2022-10-18T13:47:12;20.83;62.83
73780;SHT30;62093;37.614;15.072;2022-10-18T14:08:55;20.80;62.97
73780;SHT30;62093;37.614;15.072;2022-10-18T14:21:57;20.77;63.03
73780;SHT30;62093;37.614;15.072;2022-10-18T14:24:25;20.80;63.07
73780;SHT30;62093;37.614;15.072;2022-10-18T14:29:40;20.77;63.12
73780;SHT30;62093;37.614;15.072;2022-10-18T14:32:14;20.77;63.11
73780;SHT30;62093;37.614;15.072;2022-10-18T14:34:45;20.76;63.15
73780;SHT30;62093;37.614;15.072;2022-10-18T14:37:37;20.76;63.19
73780;SHT30;62093;37.614;15.072;2022-10-18T14:40:04;20.76;63.18
73780;SHT30;62093;37.614;15.072;2022-10-18T14:42:30;20.75;63.22
73780;SHT30;62093;37.614;15.072;2022-10-18T14:44:55;20.76;63.20
73780;SHT30;62093;37.614;15.072;2022-10-18T14:47:24;20.79;63.23
73780;SHT30;62093;37.614;15.072;2022-10-18T14:49:52;20.76;63.23
73780;SHT30;62093;37.614;15.072;2022-10-18T14:52:28;20.75;63.27
73780;SHT30;62093;37.614;15.072;2022-10-18T14:54:56;20.77;63.25
73780;SHT30;62093;37.614;15.072;2022-10-18T14:57:34;20.76;63.25
73780;SHT30;62093;37.614;15.072;2022-10-18T15:00:04;20.76;63.27
73780;SHT30;62093;37.614;15.072;2022-10-18T15:02:34;20.75;63.32
73780;SHT30;62093;37.614;15.072;2022-10-18T15:07:42;20.76;63.27
73780;SHT30;62093;37.614;15.072;2022-10-18T15:10:17;20.76;63.24
73780;SHT30;62093;37.614;15.072;2022-10-18T15:12:43;20.75;63.42
73780;SHT30;62093;37.614;15.072;2022-10-18T15:15:17;20.76;63.38
73780;SHT30;62093;37.614;15.072;2022-10-18T15:17:44;20.73;63.37
73780;SHT30;62093;37.614;15.072;2022-10-18T15:20:33;20.73;63.30
73780;SHT30;62093;37.614;15.072;2022-10-18T15:23:22;20.75;63.27
73780;SHT30;62093;37.614;15.072;2022-10-18T15:25:49;20.76;63.31
73780;SHT30;62093;37.614;15.072;2022-10-18T15:28:27;20.77;63.36
73780;SHT30;62093;37.614;15.072;2022-10-18T15:30:54;20.76;63.38
73780;SHT30;62093;37.614;15.072;2022-10-18T15:33:24;20.75;63.36
73780;SHT30;62093;37.614;15.072;2022-10-18T15:35:51;20.73;63.43
73780;SHT30;62093;37.614;15.072;2022-10-18T15:38:28;20.72;63.37
73780;SHT30;62093;37.614;15.072;2022-10-18T15:41:00;20.75;63.42
73780;SHT30;62093;37.614;15.072;2022-10-18T15:45:58;20.73;63.47
73780;SHT30;62093;37.614;15.072;2022-10-18T15:48:26;20.72;63.49
73780;SHT30;62093;37.614;15.072;2022-10-18T15:55:48;20.69;63.57
73780;SHT30;62093;37.614;15.072;2022-10-18T15:58:21;20.71;63.52
73780;SHT30;62093;37.614;15.072;2022-10-18T16:00:48;20.68;63.59
73780;SHT30;62093;37.614;15.072;2022-10-18T16:03:16;20.69;63.58
73780;SHT30;62093;37.614;15.072;2022-10-18T16:05:42;20.68;63.63
73780;SHT30;62093;37.614;15.072;2022-10-18T16:08:27;20.73;63.69
73780;SHT30;62093;37.614;15.072;2022-10-18T16:10:57;20.68;63.68
73780;SHT30;62093;37.614;15.072;2022-10-18T16:13:24;20.68;63.70
73780;SHT30;62093;37.614;15.072;2022-10-18T16:15:50;20.66;63.75
73780;SHT30;62093;37.614;15.072;2022-10-18T16:18:18;20.64;63.80
73780;SHT30;62093;37.614;15.072;2022-10-18T16:20:46;20.64;63.83
73780;SHT30;62093;37.614;15.072;2022-10-18T16:23:21;20.65;63.85
73780;SHT30;62093;37.614;15.072;2022-10-18T16:25:48;20.66;63.92
73780;SHT30;62093;37.614;15.072;2022-10-18T16:28:17;20.64;63.92
73780;SHT30;62093;37.614;15.072;2022-10-18T16:30:54;20.64;63.92
73780;SHT30;62093;37.614;15.072;2022-10-18T16:33:20;20.64;64.01
73780;SHT30;62093;37.614;15.072;2022-10-18T16:35:46;20.62;63.98
73780;SHT30;62093;37.614;15.072;2022-10-18T16:38:27;20.62;64.12
73780;SHT30;62093;37.614;15.072;2022-10-18T16:40:54;20.62;64.13
73780;SHT30;62093;37.614;15.072;2022-10-18T16:43:21;20.61;64.21
73780;SHT30;62093;37.614;15.072;2022-10-18T16:45:47;20.62;64.11
73780;SHT30;62093;37.614;15.072;2022-10-18T16:48:14;20.58;64.16
73780;SHT30;62093;37.614;15.072;2022-10-18T16:50:41;20.59;64.12
73780;SHT30;62093;37.614;15.072;2022-10-18T16:53:07;20.59;64.09
73780;SHT30;62093;37.614;15.072;2022-10-18T16:55:33;20.62;64.17
73780;SHT30;62093;37.614;15.072;2022-10-18T16:57:59;20.58;64.20
73780;SHT30;62093;37.614;15.072;2022-10-18T17:00:25;20.59;64.25
73780;SHT30;62093;37.614;15.072;2022-10-18T17:02:51;20.58;64.21
73780;SHT30;62093;37.614;15.072;2022-10-18T17:05:17;20.56;64.28
73780;SHT30;62093;37.614;15.072;2022-10-18T17:07:43;20.55;64.28
73780;SHT30;62093;37.614;15.072;2022-10-18T17:10:16;20.56;64.30
73780;SHT30;62093;37.614;15.072;2022-10-18T17:12:42;20.55;64.26
73780;SHT30;62093;37.614;15.072;2022-10-18T17:15:09;20.56;64.31
73780;SHT30;62093;37.614;15.072;2022-10-18T17:17:36;20.53;64.34
73780;SHT30;62093;37.614;15.072;2022-10-18T17:20:04;20.55;64.25
73780;SHT30;62093;37.614;15.072;2022-10-18T17:22:30;20.52;64.32
73780;SHT30;62093;37.614;15.072;2022-10-18T17:24:56;20.52;64.32
73780;SHT30;62093;37.614;15.072;2022-10-18T17:27:22;20.52;64.32
73780;SHT30;62093;37.614;15.072;2022-10-18T17:29:48;20.51;64.28
73780;SHT30;62093;37.614;15.072;2022-10-18T17:32:13;20.52;64.35
73780;SHT30;62093;37.614;15.072;2022-10-18T17:34:39;20.51;64.35
73780;SHT30;62093;37.614;15.072;2022-10-18T17:37:05;20.51;64.40
73780;SHT30;62093;37.614;15.072;2022-10-18T17:39:31;20.52;64.34
73780;SHT30;62093;37.614;15.072;2022-10-18T17:41:58;20.51;64.36
73780;SHT30;62093;37.614;15.072;2022-10-18T17:44:24;20.49;64.35
73780;SHT30;62093;37.614;15.072;2022-10-18T17:46:50;20.49;64.38
73780;SHT30;62093;37.614;15.072;2022-10-18T17:49:16;20.46;64.43
73780;SHT30;62093;37.614;15.072;2022-10-18T17:51:42;20.49;64.41
73780;SHT30;62093;37.614;15.072;2022-10-18T17:54:11;20.49;64.39
73780;SHT30;62093;37.614;15.072;2022-10-18T17:56:38;20.46;64.44
73780;SHT30;62093;37.614;15.072;2022-10-18T17:59:04;20.48;64.47
73780;SHT30;62093;37.614;15.072;2022-10-18T18:01:30;20.49;64.41
73780;SHT30;62093;37.614;15.072;2022-10-18T18:03:57;20.49;64.37
73780;SHT30;62093;37.614;15.072;2022-10-18T18:06:26;20.46;64.44
73780;SHT30;62093;37.614;15.072;2022-10-18T18:08:57;20.48;64.44
73780;SHT30;62093;37.614;15.072;2022-10-18T18:11:23;20.48;64.47
73780;SHT30;62093;37.614;15.072;2022-10-18T18:13:49;20.51;64.35
73780;SHT30;62093;37.614;15.072;2022-10-18T18:16:20;20.52;64.33
73780;SHT30;62093;37.614;15.072;2022-10-18T18:18:50;20.52;64.37
73780;SHT30;62093;37.614;15.072;2022-10-18T18:21:16;20.49;64.32
73780;SHT30;62093;37.614;15.072;2022-10-18T18:23:43;20.48;64.37
73780;SHT30;62093;37.614;15.072;2022-10-18T18:26:09;20.49;64.39
73780;SHT30;62093;37.614;15.072;2022-10-18T18:28:35;20.48;64.39
73780;SHT30;62093;37.614;15.072;2022-10-18T18:31:20;20.49;64.40
73780;SHT30;62093;37.614;15.072;2022-10-18T18:33:51;20.48;64.47
73780;SHT30;62093;37.614;15.072;2022-10-18T18:36:18;20.46;64.42
73780;SHT30;62093;37.614;15.072;2022-10-18T18:38:44;20.49;64.45
73780;SHT30;62093;37.614;15.072;2022-10-18T18:41:11;20.46;64.47
73780;SHT30;62093;37.614;15.072;2022-10-18T18:43:40;20.48;64.48
73780;SHT30;62093;37.614;15.072;2022-10-18T18:46:07;20.48;64.48
73780;SHT30;62093;37.614;15.072;2022-10-18T18:48:33;20.51;64.46